Montgomery, IN

6:43 AM EST on March 01, 2015 (GMT -0500)
White Ridge | Change Station
CLOSE
Current Station
Personal Weather Station
Location: Washington, IN
Elevation: 528 ft
Nearby Weather Stations
Active Advisory: Winter Weather Advisory

Elev 528 ft 38.66 °N, 87.14 °W | Updated 12 seconds ago

Ice Pellets
Ice Pellets
32.9 °F
Feels Like 33 °F
N
0.0
Wind Variable Wind from WNW
Gusts 0.0 mph

Today
High -- | Low -- °F
--% Chance of Precip.
Yesterday
High -- | Low -- °F
Precip. -- in
7:20 AM 6:40 PM
Waxing Gibbous, 84% visible
Pressure 30.37 in
Visibility 2.5 miles
Clouds Overcast 2600 ft
Windchill 33 °F
Dew Point 30 °F
Humidity 90%
Rainfall 0.00 in
Snow Depth Not available.
UV 0.0 out of 12
Pollen .20 out of 12
Air Quality Not available.
Flu Activity Not available.
METAR KDCY 011135Z AUTO 00000KT 2 1/2SM -RA OVC026 00/M02 A3037 RMK AO2 P0002 T00001017

More Conditions Fewer Conditions

Pressure 30.37 in
Visibility 2.5 miles
Clouds Overcast 2600 ft
Windchill 33 °F
Dew Point 30 °F
Humidity 90%
Rainfall 0.00 in
Snow Depth Not available.
UV 0.0 out of 12
Pollen .20 out of 12
Air Quality Not available.
Flu Activity Not available.
METAR KDCY 011135Z AUTO 00000KT 2 1/2SM -RA OVC026 00/M02 A3037 RMK AO2 P0002 T00001017

More Conditions Fewer Conditions

10-Day Weather Forecast

Almanac

Astronomy

Mar. 01, 2015 Rise Set
Actual Time
Civil Twilight
Nautical Twilight
Astronomical Twilight
Moon
Length of Visible Light
Length of Day
Tomorrow will be .
, % of the Moon is Illuminated

Today's Extremes

State Highs State Lows

Community

WunderPhotos

Upload Photos

1,801,365 photos uploaded!

WunderBlogs® & News

Nearby

Air Quality

  Air Quality AQ Index Pollutant
Not available.

Snow Depth

Station Depth Elevation

Earthquake Activity

City Distance Mag. Time & Date
Minimum magnitude displayed is 2.5.

Coastal Water Temperatures

Place Temperature

Nearby Weather Stations

Winter Weather Advisory
Statement as of 3:22 AM EST on March 01, 2015

... Winter Weather Advisory remains in effect until 7 PM EST this
evening...

* accumulations... total snow accumulations of 2 to 5 inches with
light icing are expected.

* Timing... accumulating snow will continue this morning. Snow will
mix with freezing rain... and rain later today... especially south
of a Sullivan to Bloomington to Columbus line.

* Main impact... hazardous travel conditions due to accumulating
snow and light icing.

* Other impacts... reduced visibility in areas of heavier snow.

Precautionary/preparedness actions...

A Winter Weather Advisory means that periods of snow... sleet... or
freezing rain will cause travel difficulties. Be prepared for
slippery roads and limited visibilities... and use caution while
driving.